TimeEST,TemperatureF,Dew PointF,Humidity,Sea Level PressureIn,VisibilityMPH,Wind Direction,Wind SpeedMPH,Gust SpeedMPH,PrecipitationIn,Events,Conditions,WindDirDegrees,DateUTC
12:06 AM,42.1,42.1,100,29.02,1.5,SSE,8.1,-,0.00,Rain,Light Rain,160,2014-01-12 05:06:00
12:16 AM,42.1,42.1,100,29.01,0.8,ESE,3.5,-,0.00,Rain,Light Rain,110,2014-01-12 05:16:00
12:29 AM,43.0,43.0,100,29.01,1.5,South,4.6,-,0.00,,Overcast,190,2014-01-12 05:29:00
12:33 AM,43.0,43.0,100,29.01,3.0,SSW,3.5,-,0.00,,Overcast,200,2014-01-12 05:33:00
12:54 AM,44.1,43.0,96,29.02,8.0,South,6.9,-,0.01,Rain,Light Rain,170,2014-01-12 05:54:00
1:26 AM,43.0,43.0,100,28.98,1.5,Variable,3.5,-,0.00,,Overcast,0,2014-01-12 06:26:00
1:29 AM,42.1,42.1,100,28.98,1.0,SSE,4.6,-,0.00,,Overcast,160,2014-01-12 06:29:00
1:36 AM,43.0,43.0,100,28.98,2.0,Calm,Calm,-,0.00,,Overcast,0,2014-01-12 06:36:00
1:49 AM,42.8,42.8,100,28.98,1.8,South,3.5,-,0.00,,Overcast,170,2014-01-12 06:49:00
1:54 AM,43.0,42.1,97,29.00,2.0,South,3.5,-,0.00,,Overcast,190,2014-01-12 06:54:00
2:11 AM,44.1,43.0,96,28.99,4.0,SSW,8.1,-,N/A,,Overcast,200,2014-01-12 07:11:00
2:37 AM,44.1,43.0,96,29.03,3.0,SW,12.7,24.2,0.06,Rain,Rain,230,2014-01-12 07:37:00
2:44 AM,44.1,43.0,96,29.02,9.0,SW,10.4,21.9,0.07,Rain,Light Rain,220,2014-01-12 07:44:00
2:54 AM,44.1,43.0,96,29.04,10.0,SSW,9.2,-,0.08,Rain,Light Rain,210,2014-01-12 07:54:00
3:54 AM,43.0,42.1,97,29.05,10.0,SW,11.5,-,0.02,Rain,Light Rain,230,2014-01-12 08:54:00
4:54 AM,43.0,39.9,89,29.06,10.0,WSW,12.7,23.0,0.00,,Overcast,240,2014-01-12 09:54:00
5:05 AM,43.0,39.9,89,29.06,10.0,WSW,19.6,28.8,N/A,,Overcast,240,2014-01-12 10:05:00
5:54 AM,41.0,35.1,79,29.09,10.0,WSW,16.1,26.5,N/A,,Partly Cloudy,240,2014-01-12 10:54:00
6:54 AM,39.9,34.0,79,29.11,10.0,SW,11.5,-,N/A,,Overcast,230,2014-01-12 11:54:00
7:27 AM,39.0,33.1,79,29.09,10.0,WSW,13.8,-,N/A,,Overcast,240,2014-01-12 12:27:00
7:35 AM,39.0,33.1,79,29.09,10.0,SW,13.8,23.0,N/A,,Overcast,230,2014-01-12 12:35:00
7:54 AM,39.9,33.1,77,29.12,10.0,WSW,13.8,25.3,N/A,,Overcast,240,2014-01-12 12:54:00
8:33 AM,39.0,33.1,79,29.13,10.0,WSW,9.2,20.7,N/A,,Overcast,240,2014-01-12 13:33:00
8:54 AM,39.0,33.1,79,29.17,10.0,WSW,10.4,-,N/A,,Overcast,250,2014-01-12 13:54:00
9:54 AM,39.9,30.9,70,29.18,10.0,WSW,11.5,19.6,N/A,,Overcast,250,2014-01-12 14:54:00
10:54 AM,39.9,30.9,70,29.19,10.0,West,12.7,24.2,N/A,,Overcast,260,2014-01-12 15:54:00
11:49 AM,39.2,30.2,70,29.18,10.0,West,16.1,24.2,0.00,,Overcast,260,2014-01-12 16:49:00
11:54 AM,39.0,30.0,70,29.20,10.0,West,17.3,26.5,0.00,,Overcast,260,2014-01-12 16:54:00
12:54 PM,39.0,28.0,65,29.22,10.0,West,15.0,21.9,N/A,,Overcast,260,2014-01-12 17:54:00
1:54 PM,39.0,27.0,62,29.25,10.0,West,13.8,26.5,N/A,,Overcast,260,2014-01-12 18:54:00
2:54 PM,37.9,26.1,62,29.30,10.0,West,11.5,19.6,0.00,,Overcast,260,2014-01-12 19:54:00
3:54 PM,37.9,24.1,57,29.36,10.0,WNW,8.1,19.6,N/A,,Overcast,290,2014-01-12 20:54:00
4:54 PM,36.0,24.1,62,29.41,10.0,West,12.7,26.5,N/A,,Scattered Clouds,260,2014-01-12 21:54:00
5:54 PM,35.1,24.1,64,29.45,10.0,West,16.1,24.2,N/A,,Mostly Cloudy,280,2014-01-12 22:54:00
6:54 PM,34.0,23.0,64,29.49,10.0,West,11.5,24.2,N/A,,Clear,270,2014-01-12 23:54:00
7:54 PM,35.1,24.1,64,29.52,10.0,West,10.4,20.7,N/A,,Overcast,260,2014-01-13 00:54:00
8:54 PM,35.1,24.1,64,29.56,10.0,West,11.5,-,N/A,,Overcast,280,2014-01-13 01:54:00
9:54 PM,35.1,24.1,64,29.58,10.0,WNW,11.5,19.6,N/A,,Overcast,290,2014-01-13 02:54:00
10:54 PM,34.0,23.0,64,29.62,10.0,WNW,17.3,-,N/A,,Overcast,300,2014-01-13 03:54:00
11:54 PM,34.0,21.9,61,29.66,10.0,WNW,13.8,23.0,N/A,,Overcast,300,2014-01-13 04:54:00